sensor_id;sensor_type;location;lat;lon;timestamp;temperature;humidity
7936;DHT22;4013;49.744;8.118;2023-04-03T00:01:36;5.50;99.90
7936;DHT22;4013;49.744;8.118;2023-04-03T00:04:04;5.40;99.90
7936;DHT22;4013;49.744;8.118;2023-04-03T00:06:31;5.40;99.90
7936;DHT22;4013;49.744;8.118;2023-04-03T00:09:00;5.30;99.90
7936;DHT22;4013;49.744;8.118;2023-04-03T00:11:27;5.40;99.90
7936;DHT22;4013;49.744;8.118;2023-04-03T00:13:54;5.40;99.90
7936;DHT22;4013;49.744;8.118;2023-04-03T00:16:21;5.40;99.90
7936;DHT22;4013;49.744;8.118;2023-04-03T00:18:48;5.40;99.90
7936;DHT22;4013;49.744;8.118;2023-04-03T00:21:15;5.30;99.90
7936;DHT22;4013;49.744;8.118;2023-04-03T00:23:42;5.30;99.90
7936;DHT22;4013;49.744;8.118;2023-04-03T00:26:10;5.30;99.90
7936;DHT22;4013;49.744;8.118;2023-04-03T00:28:37;5.30;99.90
7936;DHT22;4013;49.744;8.118;2023-04-03T00:31:04;5.30;99.90
7936;DHT22;4013;49.744;8.118;2023-04-03T00:33:31;5.30;99.90
7936;DHT22;4013;49.744;8.118;2023-04-03T00:35:58;5.30;99.90
7936;DHT22;4013;49.744;8.118;2023-04-03T00:38:25;5.20;99.90
7936;DHT22;4013;49.744;8.118;2023-04-03T00:40:52;5.10;99.90
7936;DHT22;4013;49.744;8.118;2023-04-03T00:43:23;5.10;99.90
7936;DHT22;4013;49.744;8.118;2023-04-03T00:45:51;5.10;99.90
7936;DHT22;4013;49.744;8.118;2023-04-03T00:48:20;5.20;99.90
7936;DHT22;4013;49.744;8.118;2023-04-03T00:50:49;5.20;99.90
7936;DHT22;4013;49.744;8.118;2023-04-03T00:53:21;5.20;99.90
7936;DHT22;4013;49.744;8.118;2023-04-03T00:55:50;5.10;99.90
7936;DHT22;4013;49.744;8.118;2023-04-03T00:58:20;5.00;99.90
7936;DHT22;4013;49.744;8.118;2023-04-03T01:00:51;5.00;99.90
7936;DHT22;4013;49.744;8.118;2023-04-03T01:03:23;5.10;99.90
7936;DHT22;4013;49.744;8.118;2023-04-03T01:05:50;5.10;99.90
7936;DHT22;4013;49.744;8.118;2023-04-03T01:08:17;5.10;99.90
7936;DHT22;4013;49.744;8.118;2023-04-03T01:10:44;5.10;99.90
7936;DHT22;4013;49.744;8.118;2023-04-03T01:13:23;5.10;99.90
7936;DHT22;4013;49.744;8.118;2023-04-03T01:15:50;4.90;99.90
7936;DHT22;4013;49.744;8.118;2023-04-03T01:18:17;4.90;99.90
7936;DHT22;4013;49.744;8.118;2023-04-03T01:23:58;5.00;99.90
7936;DHT22;4013;49.744;8.118;2023-04-03T01:26:27;5.00;99.90
7936;DHT22;4013;49.744;8.118;2023-04-03T01:28:59;5.00;99.90
7936;DHT22;4013;49.744;8.118;2023-04-03T01:31:28;5.00;99.90
7936;DHT22;4013;49.744;8.118;2023-04-03T01:33:57;4.90;99.90
7936;DHT22;4013;49.744;8.118;2023-04-03T01:36:27;5.00;99.90
7936;DHT22;4013;49.744;8.118;2023-04-03T01:38:55;5.10;99.90
7936;DHT22;4013;49.744;8.118;2023-04-03T01:41:22;5.00;99.90
7936;DHT22;4013;49.744;8.118;2023-04-03T01:43:51;5.00;99.90
7936;DHT22;4013;49.744;8.118;2023-04-03T01:46:18;4.90;99.90
7936;DHT22;4013;49.744;8.118;2023-04-03T01:48:45;4.90;99.90
7936;DHT22;4013;49.744;8.118;2023-04-03T01:51:14;5.00;99.90
7936;DHT22;4013;49.744;8.118;2023-04-03T01:53:41;4.90;99.90
7936;DHT22;4013;49.744;8.118;2023-04-03T01:56:08;4.80;99.90
7936;DHT22;4013;49.744;8.118;2023-04-03T01:58:35;4.80;99.90
7936;DHT22;4013;49.744;8.118;2023-04-03T02:01:02;4.80;99.90
7936;DHT22;4013;49.744;8.118;2023-04-03T02:03:29;4.80;99.90
7936;DHT22;4013;49.744;8.118;2023-04-03T02:05:56;4.70;99.90
7936;DHT22;4013;49.744;8.118;2023-04-03T02:08:25;4.80;99.90
7936;DHT22;4013;49.744;8.118;2023-04-03T02:10:52;4.70;99.90
7936;DHT22;4013;49.744;8.118;2023-04-03T02:13:19;4.70;99.90
7936;DHT22;4013;49.744;8.118;2023-04-03T02:15:46;4.80;99.90
7936;DHT22;4013;49.744;8.118;2023-04-03T02:18:14;4.70;99.90
7936;DHT22;4013;49.744;8.118;2023-04-03T02:20:41;4.70;99.90
7936;DHT22;4013;49.744;8.118;2023-04-03T02:23:08;4.70;99.90
7936;DHT22;4013;49.744;8.118;2023-04-03T02:25:36;4.70;99.90
7936;DHT22;4013;49.744;8.118;2023-04-03T02:28:03;4.80;99.90
7936;DHT22;4013;49.744;8.118;2023-04-03T02:30:30;4.80;99.90
7936;DHT22;4013;49.744;8.118;2023-04-03T02:32:57;4.80;99.90
7936;DHT22;4013;49.744;8.118;2023-04-03T02:35:24;4.90;99.90
7936;DHT22;4013;49.744;8.118;2023-04-03T02:37:51;4.80;99.90
7936;DHT22;4013;49.744;8.118;2023-04-03T02:40:18;4.60;99.90
7936;DHT22;4013;49.744;8.118;2023-04-03T02:42:46;4.60;99.90
7936;DHT22;4013;49.744;8.118;2023-04-03T02:45:13;4.60;99.90
7936;DHT22;4013;49.744;8.118;2023-04-03T02:47:40;4.50;99.90
7936;DHT22;4013;49.744;8.118;2023-04-03T02:50:08;4.40;99.90
7936;DHT22;4013;49.744;8.118;2023-04-03T02:52:35;4.50;99.90
7936;DHT22;4013;49.744;8.118;2023-04-03T02:55:02;4.50;99.90
7936;DHT22;4013;49.744;8.118;2023-04-03T02:57:29;4.40;99.90
7936;DHT22;4013;49.744;8.118;2023-04-03T02:59:57;4.30;99.90
7936;DHT22;4013;49.744;8.118;2023-04-03T03:02:24;4.30;99.90
7936;DHT22;4013;49.744;8.118;2023-04-03T03:04:51;4.20;99.90
7936;DHT22;4013;49.744;8.118;2023-04-03T03:07:18;4.30;99.90
7936;DHT22;4013;49.744;8.118;2023-04-03T03:09:45;4.20;99.90
7936;DHT22;4013;49.744;8.118;2023-04-03T03:12:12;4.30;99.90
7936;DHT22;4013;49.744;8.118;2023-04-03T03:14:39;4.30;99.90
7936;DHT22;4013;49.744;8.118;2023-04-03T03:17:09;4.30;99.90
7936;DHT22;4013;49.744;8.118;2023-04-03T03:19:36;4.30;99.90
7936;DHT22;4013;49.744;8.118;2023-04-03T03:22:03;4.30;99.90
7936;DHT22;4013;49.744;8.118;2023-04-03T03:24:30;4.30;99.90
7936;DHT22;4013;49.744;8.118;2023-04-03T03:26:58;4.40;99.90
7936;DHT22;4013;49.744;8.118;2023-04-03T03:29:25;4.30;99.90
7936;DHT22;4013;49.744;8.118;2023-04-03T03:31:52;4.20;99.90
7936;DHT22;4013;49.744;8.118;2023-04-03T03:34:20;4.10;99.90
7936;DHT22;4013;49.744;8.118;2023-04-03T03:36:47;3.90;99.90
7936;DHT22;4013;49.744;8.118;2023-04-03T03:39:14;3.90;99.90
7936;DHT22;4013;49.744;8.118;2023-04-03T03:41:41;3.90;99.90
7936;DHT22;4013;49.744;8.118;2023-04-03T03:44:08;3.80;99.90
7936;DHT22;4013;49.744;8.118;2023-04-03T03:46:35;3.80;99.90
7936;DHT22;4013;49.744;8.118;2023-04-03T03:49:02;3.80;99.90
7936;DHT22;4013;49.744;8.118;2023-04-03T03:51:30;3.70;99.90
7936;DHT22;4013;49.744;8.118;2023-04-03T03:53:57;3.80;99.90
7936;DHT22;4013;49.744;8.118;2023-04-03T03:56:24;3.70;99.90
7936;DHT22;4013;49.744;8.118;2023-04-03T03:58:52;3.70;99.90
7936;DHT22;4013;49.744;8.118;2023-04-03T04:01:19;3.80;99.90
7936;DHT22;4013;49.744;8.118;2023-04-03T04:03:47;3.90;99.90
7936;DHT22;4013;49.744;8.118;2023-04-03T04:06:14;3.90;99.90
7936;DHT22;4013;49.744;8.118;2023-04-03T04:08:43;3.80;99.90
7936;DHT22;4013;49.744;8.118;2023-04-03T04:11:10;3.70;99.90
7936;DHT22;4013;49.744;8.118;2023-04-03T04:13:37;3.60;99.90
7936;DHT22;4013;49.744;8.118;2023-04-03T04:16:04;3.60;99.90
7936;DHT22;4013;49.744;8.118;2023-04-03T04:18:31;3.50;99.90
7936;DHT22;4013;49.744;8.118;2023-04-03T04:20:58;3.50;99.90
7936;DHT22;4013;49.744;8.118;2023-04-03T04:23:25;3.40;99.90
7936;DHT22;4013;49.744;8.118;2023-04-03T04:25:54;3.40;99.90
7936;DHT22;4013;49.744;8.118;2023-04-03T04:28:21;3.40;99.90
7936;DHT22;4013;49.744;8.118;2023-04-03T04:30:47;3.30;99.90
7936;DHT22;4013;49.744;8.118;2023-04-03T04:33:14;3.30;99.90
7936;DHT22;4013;49.744;8.118;2023-04-03T04:35:42;3.30;99.90
7936;DHT22;4013;49.744;8.118;2023-04-03T04:38:09;3.20;99.90
7936;DHT22;4013;49.744;8.118;2023-04-03T04:40:36;3.20;99.90
7936;DHT22;4013;49.744;8.118;2023-04-03T04:43:04;3.30;99.90
7936;DHT22;4013;49.744;8.118;2023-04-03T04:45:31;3.20;99.90
7936;DHT22;4013;49.744;8.118;2023-04-03T04:47:58;3.10;99.90
7936;DHT22;4013;49.744;8.118;2023-04-03T04:50:25;3.10;99.90
7936;DHT22;4013;49.744;8.118;2023-04-03T04:52:52;3.10;99.90
7936;DHT22;4013;49.744;8.118;2023-04-03T04:55:19;3.10;99.90
7936;DHT22;4013;49.744;8.118;2023-04-03T04:57:46;3.20;99.90
7936;DHT22;4013;49.744;8.118;2023-04-03T05:00:15;3.10;99.90
7936;DHT22;4013;49.744;8.118;2023-04-03T05:02:43;3.10;99.90
7936;DHT22;4013;49.744;8.118;2023-04-03T05:05:10;3.10;99.90
7936;DHT22;4013;49.744;8.118;2023-04-03T05:07:36;3.20;99.90
7936;DHT22;4013;49.744;8.118;2023-04-03T05:10:04;3.30;99.90
7936;DHT22;4013;49.744;8.118;2023-04-03T05:12:31;3.40;99.90
7936;DHT22;4013;49.744;8.118;2023-04-03T05:14:58;3.40;99.90
7936;DHT22;4013;49.744;8.118;2023-04-03T05:17:27;3.40;99.90
7936;DHT22;4013;49.744;8.118;2023-04-03T05:19:54;3.40;99.90
7936;DHT22;4013;49.744;8.118;2023-04-03T05:22:21;3.50;99.90
7936;DHT22;4013;49.744;8.118;2023-04-03T05:24:47;3.50;99.90
7936;DHT22;4013;49.744;8.118;2023-04-03T05:27:14;3.50;99.90
7936;DHT22;4013;49.744;8.118;2023-04-03T05:29:42;3.50;99.90
7936;DHT22;4013;49.744;8.118;2023-04-03T05:32:09;3.50;99.90
7936;DHT22;4013;49.744;8.118;2023-04-03T05:34:37;3.50;99.90
7936;DHT22;4013;49.744;8.118;2023-04-03T05:37:04;3.50;99.90
7936;DHT22;4013;49.744;8.118;2023-04-03T05:39:31;3.60;99.90
7936;DHT22;4013;49.744;8.118;2023-04-03T05:41:59;3.50;99.90
7936;DHT22;4013;49.744;8.118;2023-04-03T05:44:26;3.50;99.90
7936;DHT22;4013;49.744;8.118;2023-04-03T05:46:53;3.50;99.90
7936;DHT22;4013;49.744;8.118;2023-04-03T05:49:20;3.50;99.90
7936;DHT22;4013;49.744;8.118;2023-04-03T05:51:48;3.60;99.90
7936;DHT22;4013;49.744;8.118;2023-04-03T05:54:18;3.50;99.90
7936;DHT22;4013;49.744;8.118;2023-04-03T05:56:46;3.60;99.90
7936;DHT22;4013;49.744;8.118;2023-04-03T05:59:13;3.70;99.90
7936;DHT22;4013;49.744;8.118;2023-04-03T06:01:40;3.80;99.90
7936;DHT22;4013;49.744;8.118;2023-04-03T06:04:07;3.90;99.90
7936;DHT22;4013;49.744;8.118;2023-04-03T06:06:46;3.90;99.90
7936;DHT22;4013;49.744;8.118;2023-04-03T06:09:15;3.90;99.90
7936;DHT22;4013;49.744;8.118;2023-04-03T06:11:43;4.00;99.90
7936;DHT22;4013;49.744;8.118;2023-04-03T06:14:10;4.10;99.90
7936;DHT22;4013;49.744;8.118;2023-04-03T06:16:37;4.20;99.90
7936;DHT22;4013;49.744;8.118;2023-04-03T06:19:05;4.20;99.90
7936;DHT22;4013;49.744;8.118;2023-04-03T06:21:32;4.20;99.90
7936;DHT22;4013;49.744;8.118;2023-04-03T06:23:59;4.30;99.90
7936;DHT22;4013;49.744;8.118;2023-04-03T06:26:27;4.40;99.90
7936;DHT22;4013;49.744;8.118;2023-04-03T06:28:55;4.30;99.90
7936;DHT22;4013;49.744;8.118;2023-04-03T06:31:22;4.30;99.90
7936;DHT22;4013;49.744;8.118;2023-04-03T06:33:49;4.40;99.90
7936;DHT22;4013;49.744;8.118;2023-04-03T06:36:18;4.40;99.90
7936;DHT22;4013;49.744;8.118;2023-04-03T06:38:46;4.50;99.90
7936;DHT22;4013;49.744;8.118;2023-04-03T06:41:13;4.50;99.90
7936;DHT22;4013;49.744;8.118;2023-04-03T06:43:43;4.40;99.90
7936;DHT22;4013;49.744;8.118;2023-04-03T06:46:14;4.30;99.90
7936;DHT22;4013;49.744;8.118;2023-04-03T06:48:42;4.40;99.90
7936;DHT22;4013;49.744;8.118;2023-04-03T06:51:16;4.40;99.90
7936;DHT22;4013;49.744;8.118;2023-04-03T06:53:44;4.40;99.90
7936;DHT22;4013;49.744;8.118;2023-04-03T06:56:11;4.50;99.90
7936;DHT22;4013;49.744;8.118;2023-04-03T06:58:38;4.60;99.90
7936;DHT22;4013;49.744;8.118;2023-04-03T07:01:07;4.60;99.90
7936;DHT22;4013;49.744;8.118;2023-04-03T07:03:35;4.60;99.90
7936;DHT22;4013;49.744;8.118;2023-04-03T07:06:02;4.60;99.90
7936;DHT22;4013;49.744;8.118;2023-04-03T07:08:29;4.70;99.90
7936;DHT22;4013;49.744;8.118;2023-04-03T07:10:56;4.70;99.90
7936;DHT22;4013;49.744;8.118;2023-04-03T07:13:23;4.60;99.90
7936;DHT22;4013;49.744;8.118;2023-04-03T07:15:50;4.60;99.90
7936;DHT22;4013;49.744;8.118;2023-04-03T07:18:19;4.60;99.90
7936;DHT22;4013;49.744;8.118;2023-04-03T07:20:47;4.70;99.90
7936;DHT22;4013;49.744;8.118;2023-04-03T07:23:14;4.80;99.90
7936;DHT22;4013;49.744;8.118;2023-04-03T07:25:43;4.90;99.90
7936;DHT22;4013;49.744;8.118;2023-04-03T07:28:10;4.90;99.90
7936;DHT22;4013;49.744;8.118;2023-04-03T07:30:43;4.90;99.90
7936;DHT22;4013;49.744;8.118;2023-04-03T07:33:10;4.90;99.90
7936;DHT22;4013;49.744;8.118;2023-04-03T07:35:40;4.80;99.90
7936;DHT22;4013;49.744;8.118;2023-04-03T07:38:08;4.80;99.90
7936;DHT22;4013;49.744;8.118;2023-04-03T07:40:35;4.60;99.90
7936;DHT22;4013;49.744;8.118;2023-04-03T07:43:03;4.60;99.90
7936;DHT22;4013;49.744;8.118;2023-04-03T07:45:30;4.60;99.90
7936;DHT22;4013;49.744;8.118;2023-04-03T07:47:57;4.80;99.90
7936;DHT22;4013;49.744;8.118;2023-04-03T07:50:24;4.90;99.90
7936;DHT22;4013;49.744;8.118;2023-04-03T07:52:53;5.00;99.90
7936;DHT22;4013;49.744;8.118;2023-04-03T07:55:23;5.00;99.90
7936;DHT22;4013;49.744;8.118;2023-04-03T07:57:50;5.00;99.90
7936;DHT22;4013;49.744;8.118;2023-04-03T08:00:17;5.10;99.90
7936;DHT22;4013;49.744;8.118;2023-04-03T08:02:45;5.20;99.90
7936;DHT22;4013;49.744;8.118;2023-04-03T08:05:16;5.30;99.90
7936;DHT22;4013;49.744;8.118;2023-04-03T08:07:43;5.30;99.90
7936;DHT22;4013;49.744;8.118;2023-04-03T08:10:11;5.40;99.90
7936;DHT22;4013;49.744;8.118;2023-04-03T08:12:38;5.60;99.90
7936;DHT22;4013;49.744;8.118;2023-04-03T08:15:07;5.60;99.90
7936;DHT22;4013;49.744;8.118;2023-04-03T08:17:34;5.50;99.90
7936;DHT22;4013;49.744;8.118;2023-04-03T08:20:01;5.60;99.90
7936;DHT22;4013;49.744;8.118;2023-04-03T08:22:29;5.50;99.90
7936;DHT22;4013;49.744;8.118;2023-04-03T08:24:56;5.60;99.90
7936;DHT22;4013;49.744;8.118;2023-04-03T08:27:25;5.60;99.90
7936;DHT22;4013;49.744;8.118;2023-04-03T08:29:52;5.60;99.90
7936;DHT22;4013;49.744;8.118;2023-04-03T08:32:19;5.60;99.90
7936;DHT22;4013;49.744;8.118;2023-04-03T08:34:46;5.60;99.90
7936;DHT22;4013;49.744;8.118;2023-04-03T08:37:13;5.60;99.90
7936;DHT22;4013;49.744;8.118;2023-04-03T08:39:41;5.60;99.90
7936;DHT22;4013;49.744;8.118;2023-04-03T08:42:16;5.60;99.90
7936;DHT22;4013;49.744;8.118;2023-04-03T08:44:52;5.60;99.90
7936;DHT22;4013;49.744;8.118;2023-04-03T08:47:24;5.60;99.90
7936;DHT22;4013;49.744;8.118;2023-04-03T08:49:57;5.50;99.90
7936;DHT22;4013;49.744;8.118;2023-04-03T08:52:32;5.60;99.90
7936;DHT22;4013;49.744;8.118;2023-04-03T08:55:03;5.70;99.90
7936;DHT22;4013;49.744;8.118;2023-04-03T08:57:33;5.80;99.90
7936;DHT22;4013;49.744;8.118;2023-04-03T09:00:05;5.70;99.90
7936;DHT22;4013;49.744;8.118;2023-04-03T09:02:37;5.80;99.90
7936;DHT22;4013;49.744;8.118;2023-04-03T09:05:11;5.90;99.90
7936;DHT22;4013;49.744;8.118;2023-04-03T09:07:43;5.90;99.90
7936;DHT22;4013;49.744;8.118;2023-04-03T09:10:12;5.90;99.90
7936;DHT22;4013;49.744;8.118;2023-04-03T09:12:43;5.90;99.90
7936;DHT22;4013;49.744;8.118;2023-04-03T09:15:18;5.90;99.90
7936;DHT22;4013;49.744;8.118;2023-04-03T09:17:55;5.90;99.90
7936;DHT22;4013;49.744;8.118;2023-04-03T09:20:26;6.10;99.90
7936;DHT22;4013;49.744;8.118;2023-04-03T09:22:57;6.00;99.90
7936;DHT22;4013;49.744;8.118;2023-04-03T09:25:27;6.10;99.90
7936;DHT22;4013;49.744;8.118;2023-04-03T09:27:54;6.20;99.90
7936;DHT22;4013;49.744;8.118;2023-04-03T09:30:24;6.20;99.90
7936;DHT22;4013;49.744;8.118;2023-04-03T09:32:53;6.20;99.90
7936;DHT22;4013;49.744;8.118;2023-04-03T09:35:24;6.30;99.90
7936;DHT22;4013;49.744;8.118;2023-04-03T09:37:53;6.30;99.90
7936;DHT22;4013;49.744;8.118;2023-04-03T09:40:32;6.60;99.90
7936;DHT22;4013;49.744;8.118;2023-04-03T09:43:04;6.50;99.90
7936;DHT22;4013;49.744;8.118;2023-04-03T09:45:47;6.40;99.90
7936;DHT22;4013;49.744;8.118;2023-04-03T09:48:17;6.40;99.90
7936;DHT22;4013;49.744;8.118;2023-04-03T09:51:08;6.60;99.90
7936;DHT22;4013;49.744;8.118;2023-04-03T09:53:43;6.70;99.90
7936;DHT22;4013;49.744;8.118;2023-04-03T09:56:20;6.60;99.90
7936;DHT22;4013;49.744;8.118;2023-04-03T09:58:50;6.60;99.90
7936;DHT22;4013;49.744;8.118;2023-04-03T10:01:27;6.70;99.90
7936;DHT22;4013;49.744;8.118;2023-04-03T10:04:08;6.60;99.90
7936;DHT22;4013;49.744;8.118;2023-04-03T10:06:37;6.50;99.90
7936;DHT22;4013;49.744;8.118;2023-04-03T10:09:17;6.50;99.90
7936;DHT22;4013;49.744;8.118;2023-04-03T10:11:59;6.80;99.90
7936;DHT22;4013;49.744;8.118;2023-04-03T10:14:27;6.70;99.90
7936;DHT22;4013;49.744;8.118;2023-04-03T10:17:02;6.70;99.90
7936;DHT22;4013;49.744;8.118;2023-04-03T10:19:37;6.90;99.90
7936;DHT22;4013;49.744;8.118;2023-04-03T10:22:16;6.90;99.90
7936;DHT22;4013;49.744;8.118;2023-04-03T10:24:51;7.00;99.90
7936;DHT22;4013;49.744;8.118;2023-04-03T10:27:27;7.10;99.90
7936;DHT22;4013;49.744;8.118;2023-04-03T10:30:05;7.00;99.90
7936;DHT22;4013;49.744;8.118;2023-04-03T10:32:46;6.70;99.90
7936;DHT22;4013;49.744;8.118;2023-04-03T10:35:24;6.50;99.90
7936;DHT22;4013;49.744;8.118;2023-04-03T10:38:01;6.50;99.90
7936;DHT22;4013;49.744;8.118;2023-04-03T10:40:34;6.50;99.90
7936;DHT22;4013;49.744;8.118;2023-04-03T10:43:09;6.40;99.90
7936;DHT22;4013;49.744;8.118;2023-04-03T10:45:55;6.40;99.90
7936;DHT22;4013;49.744;8.118;2023-04-03T10:48:40;6.40;99.90
7936;DHT22;4013;49.744;8.118;2023-04-03T10:51:16;6.50;99.90
7936;DHT22;4013;49.744;8.118;2023-04-03T10:53:53;6.50;99.90
7936;DHT22;4013;49.744;8.118;2023-04-03T10:56:30;6.50;99.90
7936;DHT22;4013;49.744;8.118;2023-04-03T10:59:16;6.50;99.90
7936;DHT22;4013;49.744;8.118;2023-04-03T11:01:47;6.60;99.90
7936;DHT22;4013;49.744;8.118;2023-04-03T11:04:16;6.70;99.90
7936;DHT22;4013;49.744;8.118;2023-04-03T11:06:46;6.80;99.90
7936;DHT22;4013;49.744;8.118;2023-04-03T11:09:21;7.00;99.90
7936;DHT22;4013;49.744;8.118;2023-04-03T11:11:54;6.90;99.90
7936;DHT22;4013;49.744;8.118;2023-04-03T11:14:26;7.00;99.90
7936;DHT22;4013;49.744;8.118;2023-04-03T11:17:02;7.00;99.90
7936;DHT22;4013;49.744;8.118;2023-04-03T11:19:35;6.90;99.90
7936;DHT22;4013;49.744;8.118;2023-04-03T11:22:10;6.80;99.90
7936;DHT22;4013;49.744;8.118;2023-04-03T11:24:42;6.80;99.90
7936;DHT22;4013;49.744;8.118;2023-04-03T11:27:15;7.00;99.90
7936;DHT22;4013;49.744;8.118;2023-04-03T11:29:43;7.10;99.90
7936;DHT22;4013;49.744;8.118;2023-04-03T11:32:27;7.00;99.90
7936;DHT22;4013;49.744;8.118;2023-04-03T11:35:00;7.20;99.90
7936;DHT22;4013;49.744;8.118;2023-04-03T11:37:31;7.20;99.90
7936;DHT22;4013;49.744;8.118;2023-04-03T11:40:04;7.10;99.90
7936;DHT22;4013;49.744;8.118;2023-04-03T11:42:35;7.00;99.90
7936;DHT22;4013;49.744;8.118;2023-04-03T11:45:17;7.10;99.90
7936;DHT22;4013;49.744;8.118;2023-04-03T11:47:50;7.10;99.90
7936;DHT22;4013;49.744;8.118;2023-04-03T11:50:44;7.20;99.90
7936;DHT22;4013;49.744;8.118;2023-04-03T11:53:32;7.20;99.90
7936;DHT22;4013;49.744;8.118;2023-04-03T11:56:02;7.40;99.90
7936;DHT22;4013;49.744;8.118;2023-04-03T11:58:32;7.50;99.90
7936;DHT22;4013;49.744;8.118;2023-04-03T12:01:02;7.30;99.90
7936;DHT22;4013;49.744;8.118;2023-04-03T12:03:57;7.30;99.90
7936;DHT22;4013;49.744;8.118;2023-04-03T12:06:57;7.20;99.90
7936;DHT22;4013;49.744;8.118;2023-04-03T12:09:35;7.20;99.90
7936;DHT22;4013;49.744;8.118;2023-04-03T12:12:37;7.30;99.90
7936;DHT22;4013;49.744;8.118;2023-04-03T12:18:31;7.60;99.90
7936;DHT22;4013;49.744;8.118;2023-04-03T12:20:59;7.40;99.90
7936;DHT22;4013;49.744;8.118;2023-04-03T12:23:30;7.30;99.90
7936;DHT22;4013;49.744;8.118;2023-04-03T12:26:04;7.20;99.90
7936;DHT22;4013;49.744;8.118;2023-04-03T12:28:39;7.20;99.90
7936;DHT22;4013;49.744;8.118;2023-04-03T12:31:10;7.30;99.90
7936;DHT22;4013;49.744;8.118;2023-04-03T12:33:47;7.20;99.90
7936;DHT22;4013;49.744;8.118;2023-04-03T12:36:28;7.10;99.90
7936;DHT22;4013;49.744;8.118;2023-04-03T12:39:31;7.30;99.90
7936;DHT22;4013;49.744;8.118;2023-04-03T12:42:17;7.40;99.90
7936;DHT22;4013;49.744;8.118;2023-04-03T12:44:55;7.60;99.90
7936;DHT22;4013;49.744;8.118;2023-04-03T12:47:29;7.70;99.90
7936;DHT22;4013;49.744;8.118;2023-04-03T12:49:59;7.70;99.90
7936;DHT22;4013;49.744;8.118;2023-04-03T12:52:37;7.60;99.90
7936;DHT22;4013;49.744;8.118;2023-04-03T12:55:15;7.30;99.90
7936;DHT22;4013;49.744;8.118;2023-04-03T12:57:42;7.20;99.90
7936;DHT22;4013;49.744;8.118;2023-04-03T13:00:30;7.40;99.90
7936;DHT22;4013;49.744;8.118;2023-04-03T13:02:59;7.50;99.90
7936;DHT22;4013;49.744;8.118;2023-04-03T13:05:26;7.80;99.90
7936;DHT22;4013;49.744;8.118;2023-04-03T13:07:58;7.80;99.90
7936;DHT22;4013;49.744;8.118;2023-04-03T13:10:26;7.60;99.90
7936;DHT22;4013;49.744;8.118;2023-04-03T13:12:55;7.50;99.90
7936;DHT22;4013;49.744;8.118;2023-04-03T13:15:25;7.50;99.90
7936;DHT22;4013;49.744;8.118;2023-04-03T13:17:53;7.50;99.90
7936;DHT22;4013;49.744;8.118;2023-04-03T13:20:24;7.30;99.90
7936;DHT22;4013;49.744;8.118;2023-04-03T13:22:55;7.60;99.90
7936;DHT22;4013;49.744;8.118;2023-04-03T13:25:26;8.10;99.90
7936;DHT22;4013;49.744;8.118;2023-04-03T13:27:54;8.30;99.90
7936;DHT22;4013;49.744;8.118;2023-04-03T13:30:26;8.20;99.90
7936;DHT22;4013;49.744;8.118;2023-04-03T13:32:56;8.20;99.90
7936;DHT22;4013;49.744;8.118;2023-04-03T13:35:33;8.00;99.90
7936;DHT22;4013;49.744;8.118;2023-04-03T13:38:02;8.10;99.90
7936;DHT22;4013;49.744;8.118;2023-04-03T13:40:31;7.70;99.90
7936;DHT22;4013;49.744;8.118;2023-04-03T13:43:00;7.80;99.90
7936;DHT22;4013;49.744;8.118;2023-04-03T13:45:29;7.90;99.90
7936;DHT22;4013;49.744;8.118;2023-04-03T13:48:10;8.30;99.90
7936;DHT22;4013;49.744;8.118;2023-04-03T13:50:55;8.30;99.70
7936;DHT22;4013;49.744;8.118;2023-04-03T13:53:23;8.30;99.90
7936;DHT22;4013;49.744;8.118;2023-04-03T13:55:58;8.40;98.90
7936;DHT22;4013;49.744;8.118;2023-04-03T13:58:27;8.60;98.20
7936;DHT22;4013;49.744;8.118;2023-04-03T14:00:59;8.60;99.90
7936;DHT22;4013;49.744;8.118;2023-04-03T14:03:31;8.50;99.90
7936;DHT22;4013;49.744;8.118;2023-04-03T14:05:58;8.30;99.90
7936;DHT22;4013;49.744;8.118;2023-04-03T14:08:27;8.30;99.90
7936;DHT22;4013;49.744;8.118;2023-04-03T14:10:55;8.30;99.90
7936;DHT22;4013;49.744;8.118;2023-04-03T14:13:23;8.30;99.90
7936;DHT22;4013;49.744;8.118;2023-04-03T14:15:50;8.40;99.90
7936;DHT22;4013;49.744;8.118;2023-04-03T14:18:19;8.20;99.90
7936;DHT22;4013;49.744;8.118;2023-04-03T14:20:47;8.10;99.90
7936;DHT22;4013;49.744;8.118;2023-04-03T14:23:14;8.90;99.20
7936;DHT22;4013;49.744;8.118;2023-04-03T14:25:41;10.00;97.30
7936;DHT22;4013;49.744;8.118;2023-04-03T14:28:17;10.20;99.90
7936;DHT22;4013;49.744;8.118;2023-04-03T14:30:45;10.10;99.90
7936;DHT22;4013;49.744;8.118;2023-04-03T14:33:14;9.60;99.90
7936;DHT22;4013;49.744;8.118;2023-04-03T14:35:42;9.50;99.90
7936;DHT22;4013;49.744;8.118;2023-04-03T14:38:23;9.20;99.00
7936;DHT22;4013;49.744;8.118;2023-04-03T14:40:51;8.90;97.80
7936;DHT22;4013;49.744;8.118;2023-04-03T14:43:19;8.80;96.00
7936;DHT22;4013;49.744;8.118;2023-04-03T14:45:48;8.40;97.30
7936;DHT22;4013;49.744;8.118;2023-04-03T14:48:18;8.50;96.20
7936;DHT22;4013;49.744;8.118;2023-04-03T14:50:46;8.50;96.90
7936;DHT22;4013;49.744;8.118;2023-04-03T14:53:14;8.70;97.80
7936;DHT22;4013;49.744;8.118;2023-04-03T14:55:43;8.70;94.60
7936;DHT22;4013;49.744;8.118;2023-04-03T14:58:13;8.60;94.60
7936;DHT22;4013;49.744;8.118;2023-04-03T15:00:43;8.90;92.60
7936;DHT22;4013;49.744;8.118;2023-04-03T15:03:14;9.30;92.70
7936;DHT22;4013;49.744;8.118;2023-04-03T15:05:42;9.30;92.00
7936;DHT22;4013;49.744;8.118;2023-04-03T15:08:17;9.30;94.10
7936;DHT22;4013;49.744;8.118;2023-04-03T15:10:45;8.70;92.80
7936;DHT22;4013;49.744;8.118;2023-04-03T15:13:13;8.50;93.60
7936;DHT22;4013;49.744;8.118;2023-04-03T15:15:41;8.40;92.60
7936;DHT22;4013;49.744;8.118;2023-04-03T15:18:14;8.40;95.70
7936;DHT22;4013;49.744;8.118;2023-04-03T15:20:42;8.30;95.10
7936;DHT22;4013;49.744;8.118;2023-04-03T15:23:10;8.30;95.60
7936;DHT22;4013;49.744;8.118;2023-04-03T15:25:37;8.40;96.10
7936;DHT22;4013;49.744;8.118;2023-04-03T15:28:05;8.30;96.90
7936;DHT22;4013;49.744;8.118;2023-04-03T15:30:32;8.20;94.50
7936;DHT22;4013;49.744;8.118;2023-04-03T15:33:01;8.20;95.80
7936;DHT22;4013;49.744;8.118;2023-04-03T15:35:28;8.20;95.40
7936;DHT22;4013;49.744;8.118;2023-04-03T15:37:55;8.20;95.40
7936;DHT22;4013;49.744;8.118;2023-04-03T15:40:22;8.30;94.20
7936;DHT22;4013;49.744;8.118;2023-04-03T15:42:49;8.20;94.50
7936;DHT22;4013;49.744;8.118;2023-04-03T15:45:16;8.30;95.10
7936;DHT22;4013;49.744;8.118;2023-04-03T15:47:43;8.30;95.50
7936;DHT22;4013;49.744;8.118;2023-04-03T15:50:12;8.30;95.20
7936;DHT22;4013;49.744;8.118;2023-04-03T15:52:39;8.10;95.70
7936;DHT22;4013;49.744;8.118;2023-04-03T15:55:06;8.10;98.00
7936;DHT22;4013;49.744;8.118;2023-04-03T15:57:33;8.10;96.80
7936;DHT22;4013;49.744;8.118;2023-04-03T16:00:00;8.00;96.20
7936;DHT22;4013;49.744;8.118;2023-04-03T16:02:27;7.90;95.00
7936;DHT22;4013;49.744;8.118;2023-04-03T16:04:58;7.90;97.60
7936;DHT22;4013;49.744;8.118;2023-04-03T16:07:27;7.90;98.20
7936;DHT22;4013;49.744;8.118;2023-04-03T16:09:54;8.00;97.90
7936;DHT22;4013;49.744;8.118;2023-04-03T16:12:21;7.90;98.30
7936;DHT22;4013;49.744;8.118;2023-04-03T16:14:48;7.90;97.00
7936;DHT22;4013;49.744;8.118;2023-04-03T16:17:14;7.80;97.90
7936;DHT22;4013;49.744;8.118;2023-04-03T16:19:41;7.80;98.10
7936;DHT22;4013;49.744;8.118;2023-04-03T16:22:08;7.80;96.20
7936;DHT22;4013;49.744;8.118;2023-04-03T16:24:37;7.70;96.40
7936;DHT22;4013;49.744;8.118;2023-04-03T16:27:04;7.70;98.60
7936;DHT22;4013;49.744;8.118;2023-04-03T16:29:31;7.70;97.90
7936;DHT22;4013;49.744;8.118;2023-04-03T16:31:58;7.60;97.00
7936;DHT22;4013;49.744;8.118;2023-04-03T16:34:26;7.50;96.20
7936;DHT22;4013;49.744;8.118;2023-04-03T16:36:55;7.40;97.60
7936;DHT22;4013;49.744;8.118;2023-04-03T16:39:22;7.40;98.40
7936;DHT22;4013;49.744;8.118;2023-04-03T16:41:51;7.40;97.30